Messages - map view · info · telemetry · weather · raw · status · beacons · messages · bulletins · browse · moving · my account
Callsign:
Show:

Loading message packets...

APRS messages are stored for 14 days. It is possible to search using wildcards (*?) after a prefix.

2019-05-21 20:58:44 EDT: NP4IL-10>WLNK-1: l
2019-05-21 20:58:44 EDT: WLNK-1>NP4IL-10: Too many login attempts -- try again later.
2019-05-21 20:58:44 EDT: EAXSVR>NWS-WARN: 220100z,SVR_STORM,MOC021-165
2019-05-21 20:58:44 EDT: EAXSVR>NWS_WARN: 220100z,SVR_STORM,MOC021-165
2019-05-21 20:58:44 EDT: OAXTOR>NWS-WARN: 220115z,TORNADO,NEC127-147
2019-05-21 20:58:44 EDT: OAXTOR>NWS_WARN: 220115z,TORNADO,NEC127-147
2019-05-21 20:59:01 EDT: W8DBK-7>K8CPA: Thanks.
2019-05-21 20:59:08 EDT: N7QME-2>N7QME: 13.19 72.5 40 15
2019-05-21 20:59:45 EDT: LSXSVR>NWS-WARN: 220100z,SVR_STORM,ILC119-133-157-163-MOC099-123-186-187-189-510
2019-05-21 20:59:45 EDT: TSAFFW>NWS-WARN: 221845z,FLASH_FLOOD,OKC097
2019-05-21 20:59:45 EDT: LSXSVR>NWS_WARN: 220100z,SVR_STORM,ILC119-133-157-163-MOC099-123-186-187-189-510
2019-05-21 20:59:45 EDT: TSAFFW>NWS_WARN: 221845z,FLASH_FLOOD,OKC097
2019-05-21 21:00:45 EDT: LSXSVR>NWS-WARN: 220115z,SVR_STORM,ILC005-027-117-119-135
2019-05-21 21:00:45 EDT: LSXSVR>NWS_WARN: 220115z,SVR_STORM,ILC005-027-117-119-135
2019-05-21 21:00:47 EDT: AB3YP>AB3YP: abc
2019-05-21 21:00:48 EDT: HS9QYG>HS9QYG: EQN
2019-05-21 21:00:49 EDT: VE6SLP-9>EMAIL: slepp@slepp.ca Restarted.
2019-05-21 21:00:49 EDT: N2ARC>AB3YP: TEST MSG DE AMERICAN RED CROSS PRINCETON NJ
2019-05-21 21:01:01 EDT: SHLBTP>SHLBTP: Info - Cabinet Temp = 78.9F Vcc = 13.5V
2019-05-21 21:01:31 EDT: VE6SLP-9>EMAIL: slepp@slepp.ca Restarted.
2019-05-21 21:01:47 EDT: TECMWW>BOM_WARN: 231400z,WIND,TAS_MW005>008
2019-05-21 21:01:47 EDT: TMWMWW>BOM_WARN: 231400z,WIND,TAS_MW005>008
2019-05-21 21:01:47 EDT: TECMWW>BOMTEC: Strong Wind Warning for coastal waters between Wineglass
2019-05-21 21:01:47 EDT: TECMWW>BOMTEC: Bay and Sandy Cape for Thursday
2019-05-21 21:01:47 EDT: TMWMWW>BOMTMW: Strong Wind Warning for coastal waters between Wineglass
2019-05-21 21:01:47 EDT: TMWMWW>BOMTMW: Bay and Sandy Cape for Thursday
2019-05-21 21:01:49 EDT: QMWMWW>BOM_WARN: 231400z,WIND,QLD_MW004>005
2019-05-21 21:01:49 EDT: QMWMWW>BOMQMW: Strong Wind Warning for coastal waters between Sharp Point
2019-05-21 21:01:49 EDT: QMWMWW>BOMQMW: and Cape Tribulation for Thursday
2019-05-21 21:02:10 EDT: AS64636>DO4BZ: U:db0alg-db0rod.db0alg # U:bb-db0seh.db0alg [1]
2019-05-21 21:02:10 EDT: AS64636>DL1NE: U:db0alg-db0rod.db0alg # U:bb-db0seh.db0alg [2]
2019-05-21 21:02:11 EDT: AS64636>DG4OAE: U:db0alg-db0rod.db0alg # U:bb-db0seh.db0alg [3]
2019-05-21 21:02:22 EDT: VK2GJ-6>VK2GJ-7: Directs=VK2AMW-1 VK2GJ-5
2019-05-21 21:02:27 EDT: KM4KAW-9>KM4KAW: SitRep: 10.78592 68.11f
2019-05-21 21:02:34 EDT: VE6SLP-9>EMAIL: slepp@slepp.ca Restarted.
2019-05-21 21:03:02 EDT: W8DBK-7>K8CPA: Thanks.
2019-05-21 21:03:33 EDT: G0RSQ>G4FKH: A,-105.7,-108.3,-109.5,B,-92.7,-100.8,-102.4,C,-100.9,-109.4,-110.5,D,-101.8,-105.8,-106.8,E,-109.2,-112.6,-114
2019-05-21 21:03:40 EDT: VK2GJ-2>VK2GJ-7: Directs=VK2AMW-1 VK2RHR-1
2019-05-21 21:03:45 EDT: SGFFFW>NWS-WARN: 220115z,FLASH_FLOOD,MOC059-077-167
2019-05-21 21:03:45 EDT: SGFFFW>NWS_WARN: 220115z,FLASH_FLOOD,MOC059-077-167
2019-05-21 21:03:45 EDT: OAXTOR>NWS-WARN: 220130z,TORNADO,NEC127-147
2019-05-21 21:03:45 EDT: OAXTOR>NWS_WARN: 220130z,TORNADO,NEC127-147
2019-05-21 21:03:45 EDT: OAXTOR>NWS-WARN: 220115z,TORNADO,NEC127-147
2019-05-21 21:03:45 EDT: OAXTOR>NWS_WARN: 220115z,TORNADO,NEC127-147
2019-05-21 21:04:03 EDT: DB0TS-10>DB0TS-9: T#001,000,000,000,000,000,00000000,Test
2019-05-21 21:04:04 EDT: AB3YP>AB3YP: kdagj
2019-05-21 21:04:12 EDT: KA6ECT>KA6ECT: 1182-Trfc Collision-No Inj at I210 E / Sr134 E
2019-05-21 21:04:14 EDT: MTHOOD>N7QME: hum 53 12 78
2019-05-21 21:04:45 EDT: OAXTOR>NWS-WARN: 220130z,TORNADO,NEC127-147
2019-05-21 21:04:45 EDT: OAXTOR>NWS_WARN: 220130z,TORNADO,NEC127-147
< previous
FAQ · Blog · Discussion group · Linking to aprs.fi · AIS sites · Service status · Database statistics · Advertising on aprs.fi · Technical details · API · Change log · Planned changes · Credits and thanks · Terms Of Service · iPhone/iPad APRS